sensor_id;sensor_type;location;lat;lon;timestamp;temperature;humidity
33988;DHT22;37428;53.580;-1.666;2022-11-11T00:00:24;13.20;85.80
33988;DHT22;37428;53.580;-1.666;2022-11-11T00:03:30;13.20;85.90
33988;DHT22;37428;53.580;-1.666;2022-11-11T00:06:35;13.20;86.10
33988;DHT22;37428;53.580;-1.666;2022-11-11T00:09:43;13.10;86.30
33988;DHT22;37428;53.580;-1.666;2022-11-11T00:12:49;13.10;86.40
33988;DHT22;37428;53.580;-1.666;2022-11-11T00:16:09;13.10;86.20
33988;DHT22;37428;53.580;-1.666;2022-11-11T00:19:13;13.10;86.10
33988;DHT22;37428;53.580;-1.666;2022-11-11T00:22:54;13.10;86.10
33988;DHT22;37428;53.580;-1.666;2022-11-11T00:26:33;13.10;85.90
33988;DHT22;37428;53.580;-1.666;2022-11-11T00:29:45;13.10;85.90
33988;DHT22;37428;53.580;-1.666;2022-11-11T00:33:01;13.10;85.90
33988;DHT22;37428;53.580;-1.666;2022-11-11T00:36:13;13.20;85.60
33988;DHT22;37428;53.580;-1.666;2022-11-11T00:39:18;13.20;85.40
33988;DHT22;37428;53.580;-1.666;2022-11-11T00:42:32;13.20;85.20
33988;DHT22;37428;53.580;-1.666;2022-11-11T00:45:43;13.20;85.20
33988;DHT22;37428;53.580;-1.666;2022-11-11T00:52:37;13.20;85.00
33988;DHT22;37428;53.580;-1.666;2022-11-11T00:55:42;13.30;84.90
33988;DHT22;37428;53.580;-1.666;2022-11-11T00:58:48;13.30;84.80
33988;DHT22;37428;53.580;-1.666;2022-11-11T01:01:58;13.30;84.80
33988;DHT22;37428;53.580;-1.666;2022-11-11T01:05:02;13.30;85.00
33988;DHT22;37428;53.580;-1.666;2022-11-11T01:08:09;13.30;84.90
33988;DHT22;37428;53.580;-1.666;2022-11-11T01:11:17;13.30;84.80
33988;DHT22;37428;53.580;-1.666;2022-11-11T01:14:24;13.30;84.90
33988;DHT22;37428;53.580;-1.666;2022-11-11T01:17:27;13.30;84.90
33988;DHT22;37428;53.580;-1.666;2022-11-11T01:20:52;13.30;85.00
33988;DHT22;37428;53.580;-1.666;2022-11-11T01:24:01;13.30;84.80
33988;DHT22;37428;53.580;-1.666;2022-11-11T01:27:05;13.40;84.70
33988;DHT22;37428;53.580;-1.666;2022-11-11T01:30:09;13.50;84.80
33988;DHT22;37428;53.580;-1.666;2022-11-11T01:33:15;13.40;84.80
33988;DHT22;37428;53.580;-1.666;2022-11-11T01:36:19;13.40;84.70
33988;DHT22;37428;53.580;-1.666;2022-11-11T01:39:23;13.40;84.80
33988;DHT22;37428;53.580;-1.666;2022-11-11T01:42:25;13.50;85.00
33988;DHT22;37428;53.580;-1.666;2022-11-11T01:45:47;13.40;84.60
33988;DHT22;37428;53.580;-1.666;2022-11-11T01:48:55;13.50;84.40
33988;DHT22;37428;53.580;-1.666;2022-11-11T01:52:20;13.50;84.40
33988;DHT22;37428;53.580;-1.666;2022-11-11T01:55:38;13.50;84.60
33988;DHT22;37428;53.580;-1.666;2022-11-11T01:59:06;13.50;84.60
33988;DHT22;37428;53.580;-1.666;2022-11-11T02:02:22;13.50;84.70
33988;DHT22;37428;53.580;-1.666;2022-11-11T02:05:32;13.50;84.50
33988;DHT22;37428;53.580;-1.666;2022-11-11T02:08:45;13.50;84.60
33988;DHT22;37428;53.580;-1.666;2022-11-11T02:11:52;13.50;84.70
33988;DHT22;37428;53.580;-1.666;2022-11-11T02:15:18;13.50;84.60
33988;DHT22;37428;53.580;-1.666;2022-11-11T02:18:22;13.50;84.70
33988;DHT22;37428;53.580;-1.666;2022-11-11T02:21:31;13.50;84.60
33988;DHT22;37428;53.580;-1.666;2022-11-11T02:24:38;13.50;84.70
33988;DHT22;37428;53.580;-1.666;2022-11-11T02:27:43;13.50;84.40
33988;DHT22;37428;53.580;-1.666;2022-11-11T02:30:52;13.50;84.00
33988;DHT22;37428;53.580;-1.666;2022-11-11T02:33:54;13.50;84.10
33988;DHT22;37428;53.580;-1.666;2022-11-11T02:36:56;13.50;84.30
33988;DHT22;37428;53.580;-1.666;2022-11-11T02:40:01;13.50;84.30
33988;DHT22;37428;53.580;-1.666;2022-11-11T02:43:10;13.50;84.30
33988;DHT22;37428;53.580;-1.666;2022-11-11T02:46:14;13.50;84.40
33988;DHT22;37428;53.580;-1.666;2022-11-11T02:49:16;13.50;84.60
33988;DHT22;37428;53.580;-1.666;2022-11-11T02:52:20;13.50;84.70
33988;DHT22;37428;53.580;-1.666;2022-11-11T02:55:23;13.50;84.70
33988;DHT22;37428;53.580;-1.666;2022-11-11T02:58:27;13.50;84.70
33988;DHT22;37428;53.580;-1.666;2022-11-11T03:01:35;13.40;84.70
33988;DHT22;37428;53.580;-1.666;2022-11-11T03:04:43;13.40;84.70
33988;DHT22;37428;53.580;-1.666;2022-11-11T03:07:49;13.40;84.60
33988;DHT22;37428;53.580;-1.666;2022-11-11T03:11:10;13.40;84.80
33988;DHT22;37428;53.580;-1.666;2022-11-11T03:14:12;13.40;84.80
33988;DHT22;37428;53.580;-1.666;2022-11-11T03:17:14;13.40;84.60
33988;DHT22;37428;53.580;-1.666;2022-11-11T03:20:36;13.40;84.40
33988;DHT22;37428;53.580;-1.666;2022-11-11T03:23:55;13.40;84.20
33988;DHT22;37428;53.580;-1.666;2022-11-11T03:27:01;13.40;84.00
33988;DHT22;37428;53.580;-1.666;2022-11-11T03:30:23;13.40;83.60
33988;DHT22;37428;53.580;-1.666;2022-11-11T03:33:31;13.40;83.40
33988;DHT22;37428;53.580;-1.666;2022-11-11T03:36:35;13.40;83.70
33988;DHT22;37428;53.580;-1.666;2022-11-11T03:39:53;13.40;83.90
33988;DHT22;37428;53.580;-1.666;2022-11-11T03:43:06;13.40;83.90
33988;DHT22;37428;53.580;-1.666;2022-11-11T03:46:20;13.40;84.10
33988;DHT22;37428;53.580;-1.666;2022-11-11T03:49:30;13.40;84.10
33988;DHT22;37428;53.580;-1.666;2022-11-11T03:52:53;13.40;84.30
33988;DHT22;37428;53.580;-1.666;2022-11-11T03:56:11;13.30;84.50
33988;DHT22;37428;53.580;-1.666;2022-11-11T03:59:27;13.30;84.70
33988;DHT22;37428;53.580;-1.666;2022-11-11T04:02:31;13.30;84.60
33988;DHT22;37428;53.580;-1.666;2022-11-11T04:05:50;13.30;84.80
33988;DHT22;37428;53.580;-1.666;2022-11-11T04:09:12;13.30;84.90
33988;DHT22;37428;53.580;-1.666;2022-11-11T04:12:33;13.30;84.90
33988;DHT22;37428;53.580;-1.666;2022-11-11T04:16:02;13.30;84.90
33988;DHT22;37428;53.580;-1.666;2022-11-11T04:19:09;13.30;84.70
33988;DHT22;37428;53.580;-1.666;2022-11-11T04:22:30;13.20;84.50
33988;DHT22;37428;53.580;-1.666;2022-11-11T04:25:34;13.20;84.00
33988;DHT22;37428;53.580;-1.666;2022-11-11T04:28:54;13.30;83.30
33988;DHT22;37428;53.580;-1.666;2022-11-11T04:32:19;13.30;83.40
33988;DHT22;37428;53.580;-1.666;2022-11-11T04:35:38;13.30;83.20
33988;DHT22;37428;53.580;-1.666;2022-11-11T04:38:42;13.30;83.10
33988;DHT22;37428;53.580;-1.666;2022-11-11T04:42:16;13.30;82.80
33988;DHT22;37428;53.580;-1.666;2022-11-11T04:45:18;13.30;82.90
33988;DHT22;37428;53.580;-1.666;2022-11-11T04:48:32;13.30;83.30
33988;DHT22;37428;53.580;-1.666;2022-11-11T04:51:40;13.20;83.50
33988;DHT22;37428;53.580;-1.666;2022-11-11T04:54:59;13.20;83.80
33988;DHT22;37428;53.580;-1.666;2022-11-11T04:58:23;13.20;83.80
33988;DHT22;37428;53.580;-1.666;2022-11-11T05:01:27;13.20;84.00
33988;DHT22;37428;53.580;-1.666;2022-11-11T05:05:21;13.20;84.20
33988;DHT22;37428;53.580;-1.666;2022-11-11T05:08:25;13.20;84.10
33988;DHT22;37428;53.580;-1.666;2022-11-11T05:12:01;13.20;84.10
33988;DHT22;37428;53.580;-1.666;2022-11-11T05:15:03;13.20;84.00
33988;DHT22;37428;53.580;-1.666;2022-11-11T05:18:29;13.20;83.80
33988;DHT22;37428;53.580;-1.666;2022-11-11T05:21:52;13.20;83.60
33988;DHT22;37428;53.580;-1.666;2022-11-11T05:24:58;13.20;83.50
33988;DHT22;37428;53.580;-1.666;2022-11-11T05:28:23;13.30;83.30
33988;DHT22;37428;53.580;-1.666;2022-11-11T05:31:25;13.30;83.10
33988;DHT22;37428;53.580;-1.666;2022-11-11T05:34:30;13.20;83.20
33988;DHT22;37428;53.580;-1.666;2022-11-11T05:37:33;13.30;82.90
33988;DHT22;37428;53.580;-1.666;2022-11-11T05:40:37;13.30;82.90
33988;DHT22;37428;53.580;-1.666;2022-11-11T05:43:39;13.30;83.00
33988;DHT22;37428;53.580;-1.666;2022-11-11T05:46:42;13.30;82.80
33988;DHT22;37428;53.580;-1.666;2022-11-11T05:49:44;13.30;82.80
33988;DHT22;37428;53.580;-1.666;2022-11-11T05:52:51;13.30;82.60
33988;DHT22;37428;53.580;-1.666;2022-11-11T05:55:53;13.30;82.70
33988;DHT22;37428;53.580;-1.666;2022-11-11T05:58:55;13.40;82.80
33988;DHT22;37428;53.580;-1.666;2022-11-11T06:02:12;13.30;82.90
33988;DHT22;37428;53.580;-1.666;2022-11-11T06:05:22;13.30;82.90
33988;DHT22;37428;53.580;-1.666;2022-11-11T06:08:32;13.30;83.10
33988;DHT22;37428;53.580;-1.666;2022-11-11T06:11:42;13.30;83.20
33988;DHT22;37428;53.580;-1.666;2022-11-11T06:14:46;13.30;83.10
33988;DHT22;37428;53.580;-1.666;2022-11-11T06:17:49;13.30;83.10
33988;DHT22;37428;53.580;-1.666;2022-11-11T06:20:54;13.30;83.10
33988;DHT22;37428;53.580;-1.666;2022-11-11T06:24:16;13.30;82.80
33988;DHT22;37428;53.580;-1.666;2022-11-11T06:27:20;13.30;82.90
33988;DHT22;37428;53.580;-1.666;2022-11-11T06:30:22;13.30;83.20
33988;DHT22;37428;53.580;-1.666;2022-11-11T06:33:31;13.20;83.30
33988;DHT22;37428;53.580;-1.666;2022-11-11T06:36:48;13.20;83.40
33988;DHT22;37428;53.580;-1.666;2022-11-11T06:39:56;13.20;83.30
33988;DHT22;37428;53.580;-1.666;2022-11-11T06:43:04;13.30;82.80
33988;DHT22;37428;53.580;-1.666;2022-11-11T06:46:06;13.30;82.70
33988;DHT22;37428;53.580;-1.666;2022-11-11T06:49:28;13.30;82.60
33988;DHT22;37428;53.580;-1.666;2022-11-11T06:52:40;13.30;82.30
33988;DHT22;37428;53.580;-1.666;2022-11-11T06:55:46;13.30;82.20
33988;DHT22;37428;53.580;-1.666;2022-11-11T06:58:49;13.40;81.90
33988;DHT22;37428;53.580;-1.666;2022-11-11T07:01:58;13.40;81.80
33988;DHT22;37428;53.580;-1.666;2022-11-11T07:05:01;13.40;81.80
33988;DHT22;37428;53.580;-1.666;2022-11-11T07:08:14;13.40;82.00
33988;DHT22;37428;53.580;-1.666;2022-11-11T07:11:18;13.40;81.90
33988;DHT22;37428;53.580;-1.666;2022-11-11T07:14:22;13.40;82.00
33988;DHT22;37428;53.580;-1.666;2022-11-11T07:17:25;13.40;82.00
33988;DHT22;37428;53.580;-1.666;2022-11-11T07:20:29;13.40;82.00
33988;DHT22;37428;53.580;-1.666;2022-11-11T07:24:02;13.50;81.90
33988;DHT22;37428;53.580;-1.666;2022-11-11T07:27:24;13.50;82.10
33988;DHT22;37428;53.580;-1.666;2022-11-11T07:30:28;13.50;82.20
33988;DHT22;37428;53.580;-1.666;2022-11-11T07:33:30;13.50;82.30
33988;DHT22;37428;53.580;-1.666;2022-11-11T07:36:36;13.50;82.20
33988;DHT22;37428;53.580;-1.666;2022-11-11T07:39:40;13.50;82.20
33988;DHT22;37428;53.580;-1.666;2022-11-11T07:42:45;13.50;82.20
33988;DHT22;37428;53.580;-1.666;2022-11-11T07:45:49;13.50;82.30
33988;DHT22;37428;53.580;-1.666;2022-11-11T07:48:52;13.50;82.50
33988;DHT22;37428;53.580;-1.666;2022-11-11T07:52:01;13.50;82.30
33988;DHT22;37428;53.580;-1.666;2022-11-11T07:55:23;13.50;82.40
33988;DHT22;37428;53.580;-1.666;2022-11-11T07:58:43;13.50;82.30
33988;DHT22;37428;53.580;-1.666;2022-11-11T08:01:45;13.50;82.40
33988;DHT22;37428;53.580;-1.666;2022-11-11T08:05:28;13.50;82.30
33988;DHT22;37428;53.580;-1.666;2022-11-11T08:08:31;13.60;82.20
33988;DHT22;37428;53.580;-1.666;2022-11-11T08:11:33;13.60;82.00
33988;DHT22;37428;53.580;-1.666;2022-11-11T08:15:05;13.60;81.70
33988;DHT22;37428;53.580;-1.666;2022-11-11T08:18:22;13.60;81.70
33988;DHT22;37428;53.580;-1.666;2022-11-11T08:21:27;13.60;81.80
33988;DHT22;37428;53.580;-1.666;2022-11-11T08:24:58;13.70;82.30
33988;DHT22;37428;53.580;-1.666;2022-11-11T08:28:03;13.60;82.20
33988;DHT22;37428;53.580;-1.666;2022-11-11T08:31:07;13.60;82.30
33988;DHT22;37428;53.580;-1.666;2022-11-11T08:34:11;13.60;82.20
33988;DHT22;37428;53.580;-1.666;2022-11-11T08:37:42;13.60;82.40
33988;DHT22;37428;53.580;-1.666;2022-11-11T08:40:59;13.70;82.50
33988;DHT22;37428;53.580;-1.666;2022-11-11T08:44:05;13.60;82.40
33988;DHT22;37428;53.580;-1.666;2022-11-11T08:47:14;13.60;82.40
33988;DHT22;37428;53.580;-1.666;2022-11-11T08:50:18;13.70;82.50
33988;DHT22;37428;53.580;-1.666;2022-11-11T08:53:37;13.70;82.70
33988;DHT22;37428;53.580;-1.666;2022-11-11T08:56:39;13.70;82.80
33988;DHT22;37428;53.580;-1.666;2022-11-11T08:59:56;13.70;82.40
33988;DHT22;37428;53.580;-1.666;2022-11-11T09:03:09;13.70;82.10
33988;DHT22;37428;53.580;-1.666;2022-11-11T09:06:14;13.70;82.10
33988;DHT22;37428;53.580;-1.666;2022-11-11T09:09:17;13.70;82.20
33988;DHT22;37428;53.580;-1.666;2022-11-11T09:12:45;13.70;82.00
33988;DHT22;37428;53.580;-1.666;2022-11-11T09:15:50;13.80;82.30
33988;DHT22;37428;53.580;-1.666;2022-11-11T09:19:02;13.70;82.60
33988;DHT22;37428;53.580;-1.666;2022-11-11T09:22:26;13.80;82.50
33988;DHT22;37428;53.580;-1.666;2022-11-11T09:25:28;13.80;82.60
33988;DHT22;37428;53.580;-1.666;2022-11-11T09:28:31;13.80;82.60
33988;DHT22;37428;53.580;-1.666;2022-11-11T09:31:35;13.80;82.40
33988;DHT22;37428;53.580;-1.666;2022-11-11T09:34:42;13.80;82.20
33988;DHT22;37428;53.580;-1.666;2022-11-11T09:38:07;13.90;82.10
33988;DHT22;37428;53.580;-1.666;2022-11-11T09:41:47;13.90;82.00
33988;DHT22;37428;53.580;-1.666;2022-11-11T09:45:22;14.00;82.40
33988;DHT22;37428;53.580;-1.666;2022-11-11T09:52:18;14.10;81.40
33988;DHT22;37428;53.580;-1.666;2022-11-11T09:55:34;14.10;80.90
33988;DHT22;37428;53.580;-1.666;2022-11-11T09:58:47;14.20;80.60
33988;DHT22;37428;53.580;-1.666;2022-11-11T10:01:57;14.20;80.20
33988;DHT22;37428;53.580;-1.666;2022-11-11T10:05:15;14.20;79.80
33988;DHT22;37428;53.580;-1.666;2022-11-11T10:08:27;14.20;80.10
33988;DHT22;37428;53.580;-1.666;2022-11-11T10:11:47;14.30;79.70
33988;DHT22;37428;53.580;-1.666;2022-11-11T10:15:09;14.30;79.70
33988;DHT22;37428;53.580;-1.666;2022-11-11T10:18:48;14.40;79.80
33988;DHT22;37428;53.580;-1.666;2022-11-11T10:21:58;14.40;79.40
33988;DHT22;37428;53.580;-1.666;2022-11-11T10:25:30;14.50;79.50
33988;DHT22;37428;53.580;-1.666;2022-11-11T10:28:37;14.50;79.00
33988;DHT22;37428;53.580;-1.666;2022-11-11T10:31:44;14.50;79.30
33988;DHT22;37428;53.580;-1.666;2022-11-11T10:35:12;14.50;79.00
33988;DHT22;37428;53.580;-1.666;2022-11-11T10:38:33;14.60;79.00
33988;DHT22;37428;53.580;-1.666;2022-11-11T10:41:45;14.60;78.60
33988;DHT22;37428;53.580;-1.666;2022-11-11T10:44:49;14.70;78.90
33988;DHT22;37428;53.580;-1.666;2022-11-11T10:48:00;14.70;78.70
33988;DHT22;37428;53.580;-1.666;2022-11-11T10:51:20;14.70;78.70
33988;DHT22;37428;53.580;-1.666;2022-11-11T10:54:29;14.80;79.10
33988;DHT22;37428;53.580;-1.666;2022-11-11T10:57:46;14.80;78.60
33988;DHT22;37428;53.580;-1.666;2022-11-11T11:00:52;14.90;79.00
33988;DHT22;37428;53.580;-1.666;2022-11-11T11:04:02;15.00;78.90
33988;DHT22;37428;53.580;-1.666;2022-11-11T11:07:10;15.00;78.40
33988;DHT22;37428;53.580;-1.666;2022-11-11T11:10:31;15.00;78.80
33988;DHT22;37428;53.580;-1.666;2022-11-11T11:13:49;15.00;78.40
33988;DHT22;37428;53.580;-1.666;2022-11-11T11:17:06;15.00;79.00
33988;DHT22;37428;53.580;-1.666;2022-11-11T11:20:13;15.00;78.50
33988;DHT22;37428;53.580;-1.666;2022-11-11T11:23:34;14.90;79.30
33988;DHT22;37428;53.580;-1.666;2022-11-11T11:26:43;14.90;79.70
33988;DHT22;37428;53.580;-1.666;2022-11-11T11:29:48;14.90;79.70
33988;DHT22;37428;53.580;-1.666;2022-11-11T11:32:58;14.90;80.10
33988;DHT22;37428;53.580;-1.666;2022-11-11T11:36:15;14.90;80.30
33988;DHT22;37428;53.580;-1.666;2022-11-11T11:39:31;14.80;80.80
33988;DHT22;37428;53.580;-1.666;2022-11-11T11:42:34;14.80;80.60
33988;DHT22;37428;53.580;-1.666;2022-11-11T11:45:54;14.80;80.30
33988;DHT22;37428;53.580;-1.666;2022-11-11T11:49:27;14.80;80.50
33988;DHT22;37428;53.580;-1.666;2022-11-11T11:52:58;14.80;80.60
33988;DHT22;37428;53.580;-1.666;2022-11-11T11:56:14;14.80;80.80
33988;DHT22;37428;53.580;-1.666;2022-11-11T11:59:59;14.80;80.60
33988;DHT22;37428;53.580;-1.666;2022-11-11T12:07:25;14.80;80.70
33988;DHT22;37428;53.580;-1.666;2022-11-11T12:10:41;14.80;80.20
33988;DHT22;37428;53.580;-1.666;2022-11-11T12:13:58;14.80;80.10
33988;DHT22;37428;53.580;-1.666;2022-11-11T12:17:19;14.90;79.70
33988;DHT22;37428;53.580;-1.666;2022-11-11T12:20:44;14.90;79.20
33988;DHT22;37428;53.580;-1.666;2022-11-11T12:24:14;15.00;79.20
33988;DHT22;37428;53.580;-1.666;2022-11-11T12:27:29;15.10;79.00
33988;DHT22;37428;53.580;-1.666;2022-11-11T12:30:38;15.10;78.80
33988;DHT22;37428;53.580;-1.666;2022-11-11T12:34:00;15.10;78.80
33988;DHT22;37428;53.580;-1.666;2022-11-11T12:37:15;15.10;79.00
33988;DHT22;37428;53.580;-1.666;2022-11-11T12:44:01;15.20;78.70
33988;DHT22;37428;53.580;-1.666;2022-11-11T12:47:11;15.20;78.60
33988;DHT22;37428;53.580;-1.666;2022-11-11T12:50:23;15.20;78.00
33988;DHT22;37428;53.580;-1.666;2022-11-11T12:53:48;15.10;77.00
33988;DHT22;37428;53.580;-1.666;2022-11-11T12:57:03;15.10;76.80
33988;DHT22;37428;53.580;-1.666;2022-11-11T13:00:18;15.10;77.10
33988;DHT22;37428;53.580;-1.666;2022-11-11T13:03:39;15.10;76.80
33988;DHT22;37428;53.580;-1.666;2022-11-11T13:07:34;15.10;77.10
33988;DHT22;37428;53.580;-1.666;2022-11-11T13:11:01;15.00;77.40
33988;DHT22;37428;53.580;-1.666;2022-11-11T13:14:29;15.00;77.20
33988;DHT22;37428;53.580;-1.666;2022-11-11T13:17:50;15.00;77.30
33988;DHT22;37428;53.580;-1.666;2022-11-11T13:21:14;14.90;77.90
33988;DHT22;37428;53.580;-1.666;2022-11-11T13:24:20;14.90;78.20
33988;DHT22;37428;53.580;-1.666;2022-11-11T13:27:51;14.90;78.60
33988;DHT22;37428;53.580;-1.666;2022-11-11T13:34:24;14.90;77.80
33988;DHT22;37428;53.580;-1.666;2022-11-11T13:37:49;14.90;77.40
33988;DHT22;37428;53.580;-1.666;2022-11-11T13:41:08;14.90;77.90
33988;DHT22;37428;53.580;-1.666;2022-11-11T13:44:44;14.90;77.70
33988;DHT22;37428;53.580;-1.666;2022-11-11T13:47:50;14.90;77.10
33988;DHT22;37428;53.580;-1.666;2022-11-11T13:51:12;15.00;77.30
33988;DHT22;37428;53.580;-1.666;2022-11-11T13:54:40;15.00;76.30
33988;DHT22;37428;53.580;-1.666;2022-11-11T13:57:49;15.00;76.50
33988;DHT22;37428;53.580;-1.666;2022-11-11T14:01:04;15.00;76.00
33988;DHT22;37428;53.580;-1.666;2022-11-11T14:04:07;15.00;76.00
33988;DHT22;37428;53.580;-1.666;2022-11-11T14:07:10;15.00;75.90
33988;DHT22;37428;53.580;-1.666;2022-11-11T14:11:01;15.00;75.70
33988;DHT22;37428;53.580;-1.666;2022-11-11T14:14:54;15.00;76.00
33988;DHT22;37428;53.580;-1.666;2022-11-11T14:21:47;14.90;75.80
33988;DHT22;37428;53.580;-1.666;2022-11-11T14:24:49;14.90;76.20
33988;DHT22;37428;53.580;-1.666;2022-11-11T14:27:52;14.90;76.50
33988;DHT22;37428;53.580;-1.666;2022-11-11T14:31:23;14.90;76.30
33988;DHT22;37428;53.580;-1.666;2022-11-11T14:34:55;14.90;75.60
33988;DHT22;37428;53.580;-1.666;2022-11-11T14:38:17;14.90;75.80
33988;DHT22;37428;53.580;-1.666;2022-11-11T14:41:46;14.90;75.90
33988;DHT22;37428;53.580;-1.666;2022-11-11T14:44:51;14.80;75.80
33988;DHT22;37428;53.580;-1.666;2022-11-11T14:51:54;14.80;76.20
33988;DHT22;37428;53.580;-1.666;2022-11-11T14:55:28;14.80;76.30
33988;DHT22;37428;53.580;-1.666;2022-11-11T14:58:41;14.80;76.50
33988;DHT22;37428;53.580;-1.666;2022-11-11T15:01:47;14.80;76.90
33988;DHT22;37428;53.580;-1.666;2022-11-11T15:04:50;14.80;76.70
33988;DHT22;37428;53.580;-1.666;2022-11-11T15:08:03;14.80;76.80
33988;DHT22;37428;53.580;-1.666;2022-11-11T15:11:22;14.80;76.70
33988;DHT22;37428;53.580;-1.666;2022-11-11T15:14:40;14.80;76.40
33988;DHT22;37428;53.580;-1.666;2022-11-11T15:18:01;14.80;76.50
33988;DHT22;37428;53.580;-1.666;2022-11-11T15:21:13;14.80;76.40
33988;DHT22;37428;53.580;-1.666;2022-11-11T15:24:27;14.80;76.30
33988;DHT22;37428;53.580;-1.666;2022-11-11T15:27:42;14.80;76.20
33988;DHT22;37428;53.580;-1.666;2022-11-11T15:31:01;14.80;76.20
33988;DHT22;37428;53.580;-1.666;2022-11-11T15:34:17;14.80;75.90
33988;DHT22;37428;53.580;-1.666;2022-11-11T15:37:25;14.80;76.10
33988;DHT22;37428;53.580;-1.666;2022-11-11T15:40:40;14.80;75.70
33988;DHT22;37428;53.580;-1.666;2022-11-11T15:43:45;14.80;75.70
33988;DHT22;37428;53.580;-1.666;2022-11-11T15:46:49;14.80;75.40
33988;DHT22;37428;53.580;-1.666;2022-11-11T15:49:55;14.80;75.60
33988;DHT22;37428;53.580;-1.666;2022-11-11T15:52:59;14.70;75.90
33988;DHT22;37428;53.580;-1.666;2022-11-11T15:56:25;14.70;75.50
33988;DHT22;37428;53.580;-1.666;2022-11-11T15:59:32;14.70;75.90
33988;DHT22;37428;53.580;-1.666;2022-11-11T16:02:53;14.70;75.90
33988;DHT22;37428;53.580;-1.666;2022-11-11T16:05:59;14.70;75.90
33988;DHT22;37428;53.580;-1.666;2022-11-11T16:09:03;14.60;76.20
33988;DHT22;37428;53.580;-1.666;2022-11-11T16:12:10;14.60;76.10
33988;DHT22;37428;53.580;-1.666;2022-11-11T16:15:36;14.60;76.40
33988;DHT22;37428;53.580;-1.666;2022-11-11T16:18:47;14.60;76.60
33988;DHT22;37428;53.580;-1.666;2022-11-11T16:21:53;14.60;76.40
33988;DHT22;37428;53.580;-1.666;2022-11-11T16:24:59;14.60;76.30
33988;DHT22;37428;53.580;-1.666;2022-11-11T16:28:09;14.50;76.60
33988;DHT22;37428;53.580;-1.666;2022-11-11T16:34:43;14.50;76.60
33988;DHT22;37428;53.580;-1.666;2022-11-11T16:37:51;14.50;76.60
33988;DHT22;37428;53.580;-1.666;2022-11-11T16:40:54;14.50;76.70
33988;DHT22;37428;53.580;-1.666;2022-11-11T16:43:58;14.40;76.80
33988;DHT22;37428;53.580;-1.666;2022-11-11T16:47:04;14.40;77.00
33988;DHT22;37428;53.580;-1.666;2022-11-11T16:50:07;14.40;77.10
33988;DHT22;37428;53.580;-1.666;2022-11-11T16:53:24;14.40;77.00
33988;DHT22;37428;53.580;-1.666;2022-11-11T16:56:33;14.40;77.20
33988;DHT22;37428;53.580;-1.666;2022-11-11T16:59:42;14.30;77.30
33988;DHT22;37428;53.580;-1.666;2022-11-11T17:03:10;14.30;77.60
33988;DHT22;37428;53.580;-1.666;2022-11-11T17:06:14;14.20;78.00
33988;DHT22;37428;53.580;-1.666;2022-11-11T17:09:38;14.20;77.90
33988;DHT22;37428;53.580;-1.666;2022-11-11T17:12:44;14.20;77.90
33988;DHT22;37428;53.580;-1.666;2022-11-11T17:15:51;14.20;78.10
33988;DHT22;37428;53.580;-1.666;2022-11-11T17:19:09;14.20;78.30
33988;DHT22;37428;53.580;-1.666;2022-11-11T17:22:12;14.10;78.30
33988;DHT22;37428;53.580;-1.666;2022-11-11T17:25:14;14.10;78.40
33988;DHT22;37428;53.580;-1.666;2022-11-11T17:28:18;14.10;78.20
33988;DHT22;37428;53.580;-1.666;2022-11-11T17:31:29;14.10;78.20
33988;DHT22;37428;53.580;-1.666;2022-11-11T17:34:33;14.10;77.80
33988;DHT22;37428;53.580;-1.666;2022-11-11T17:37:37;14.10;77.90
33988;DHT22;37428;53.580;-1.666;2022-11-11T17:40:45;14.10;78.10
33988;DHT22;37428;53.580;-1.666;2022-11-11T17:43:47;14.10;78.40
33988;DHT22;37428;53.580;-1.666;2022-11-11T17:46:52;14.00;78.50
33988;DHT22;37428;53.580;-1.666;2022-11-11T17:49:54;14.00;78.60
33988;DHT22;37428;53.580;-1.666;2022-11-11T17:53:01;14.00;78.70
33988;DHT22;37428;53.580;-1.666;2022-11-11T17:56:06;14.00;78.90
33988;DHT22;37428;53.580;-1.666;2022-11-11T17:59:10;14.00;78.90
33988;DHT22;37428;53.580;-1.666;2022-11-11T18:02:20;14.00;79.00
33988;DHT22;37428;53.580;-1.666;2022-11-11T18:05:24;14.00;79.10
33988;DHT22;37428;53.580;-1.666;2022-11-11T18:08:29;13.90;79.30
33988;DHT22;37428;53.580;-1.666;2022-11-11T18:11:34;13.90;79.50
33988;DHT22;37428;53.580;-1.666;2022-11-11T18:14:38;13.90;79.60
33988;DHT22;37428;53.580;-1.666;2022-11-11T18:17:41;13.90;79.80
33988;DHT22;37428;53.580;-1.666;2022-11-11T18:20:44;13.90;79.90
33988;DHT22;37428;53.580;-1.666;2022-11-11T18:23:46;13.90;80.00
33988;DHT22;37428;53.580;-1.666;2022-11-11T18:26:50;13.90;79.90
33988;DHT22;37428;53.580;-1.666;2022-11-11T18:29:53;13.90;79.90
33988;DHT22;37428;53.580;-1.666;2022-11-11T18:33:01;13.90;79.80
33988;DHT22;37428;53.580;-1.666;2022-11-11T18:36:08;13.90;79.80
33988;DHT22;37428;53.580;-1.666;2022-11-11T18:39:24;13.90;79.60
33988;DHT22;37428;53.580;-1.666;2022-11-11T18:42:26;13.90;79.70
33988;DHT22;37428;53.580;-1.666;2022-11-11T18:45:28;13.80;79.70
33988;DHT22;37428;53.580;-1.666;2022-11-11T18:48:34;13.80;79.90
33988;DHT22;37428;53.580;-1.666;2022-11-11T18:51:38;13.70;80.00
33988;DHT22;37428;53.580;-1.666;2022-11-11T18:54:45;13.70;80.00
33988;DHT22;37428;53.580;-1.666;2022-11-11T18:57:49;13.70;79.80
33988;DHT22;37428;53.580;-1.666;2022-11-11T19:00:51;13.70;79.90
33988;DHT22;37428;53.580;-1.666;2022-11-11T19:04:00;13.80;79.90
33988;DHT22;37428;53.580;-1.666;2022-11-11T19:07:07;13.70;79.80
33988;DHT22;37428;53.580;-1.666;2022-11-11T19:10:12;13.70;79.90
33988;DHT22;37428;53.580;-1.666;2022-11-11T19:13:15;13.70;80.00
33988;DHT22;37428;53.580;-1.666;2022-11-11T19:16:18;13.70;80.10
33988;DHT22;37428;53.580;-1.666;2022-11-11T19:19:23;13.70;80.00
33988;DHT22;37428;53.580;-1.666;2022-11-11T19:22:25;13.70;79.90
33988;DHT22;37428;53.580;-1.666;2022-11-11T19:25:27;13.70;79.90
33988;DHT22;37428;53.580;-1.666;2022-11-11T19:28:30;13.70;80.10
33988;DHT22;37428;53.580;-1.666;2022-11-11T19:31:32;13.80;80.10
33988;DHT22;37428;53.580;-1.666;2022-11-11T19:34:39;13.70;80.00
33988;DHT22;37428;53.580;-1.666;2022-11-11T19:37:48;13.70;80.10
33988;DHT22;37428;53.580;-1.666;2022-11-11T19:40:50;13.70;79.90
33988;DHT22;37428;53.580;-1.666;2022-11-11T19:43:54;13.70;80.10
33988;DHT22;37428;53.580;-1.666;2022-11-11T19:46:58;13.70;80.10
33988;DHT22;37428;53.580;-1.666;2022-11-11T19:50:02;13.80;80.00
33988;DHT22;37428;53.580;-1.666;2022-11-11T19:53:10;13.80;79.80
33988;DHT22;37428;53.580;-1.666;2022-11-11T19:56:17;13.80;79.90
33988;DHT22;37428;53.580;-1.666;2022-11-11T19:59:26;13.80;80.00
33988;DHT22;37428;53.580;-1.666;2022-11-11T20:02:29;13.80;79.80
33988;DHT22;37428;53.580;-1.666;2022-11-11T20:05:35;13.80;79.80
33988;DHT22;37428;53.580;-1.666;2022-11-11T20:08:39;13.80;79.70
33988;DHT22;37428;53.580;-1.666;2022-11-11T20:11:50;13.80;79.90
33988;DHT22;37428;53.580;-1.666;2022-11-11T20:14:58;13.70;80.00
33988;DHT22;37428;53.580;-1.666;2022-11-11T20:18:03;13.70;80.30
33988;DHT22;37428;53.580;-1.666;2022-11-11T20:21:18;13.60;80.60